Other Surface Observations
Issued by NWS Missoula, MT

Home | Current Version | Previous Version | Text Only | Print | Product List | Glossary On
Versions: 1 2 3 4 5 6 7 8 9 10 11 12 13 14 15 16 17 18 19 20 21 22 23 24 25 26 27 28 29 30 31 32 33 34 35 36 37 38 39 40 41 42 43 44 45 46 47 48 49 50
000
SXUS55 KMSO 270943
OSOMSO
MONTANA AWOS SUMMARY
NATIONAL WEATHER SERVICE MISSOULA MT
343 AM MDT WED JUL 27 2016

Montana AWOS Reports

LAUREL      |K6S8 270935Z AUTO 40SM 17/11 A3011 RMK AO1 T01720106
TWIN BRIDGES|K7S1 270935Z AUTO 00000KT 40SM 10/04 A3017 RMK AO1 T01000044
ROUNDUP     |KRPX 270935Z AUTO 00000KT 40SM 16/13 A3002 RMK AO1 T01610128




USA.gov is the U.S. government's official web portal to all federal, state and local government web resources and services.